createdAt,value
2023-01-05T00:01:09.912Z,12.11
2023-01-05T00:03:37.291Z,12.06
2023-01-05T00:06:15.687Z,12.01
2023-01-05T00:08:42.448Z,12.01
2023-01-05T00:11:42.513Z,12.15
2023-01-05T00:14:33.514Z,12.38
2023-01-05T00:17:18.817Z,12.38
2023-01-05T00:20:04.613Z,12.09
2023-01-05T00:22:32.310Z,12.15
2023-01-05T00:25:15.039Z,12.05
2023-01-05T00:27:43.396Z,12.09
2023-01-05T00:30:13.002Z,12.01
2023-01-05T00:32:41.342Z,12.00
2023-01-05T00:35:08.555Z,11.99
2023-01-05T00:37:36.540Z,12.06
2023-01-05T00:40:03.842Z,12.06
2023-01-05T00:42:30.640Z,11.98
2023-01-05T00:44:57.241Z,11.96
2023-01-05T00:47:23.838Z,11.96
2023-01-05T00:49:50.519Z,11.84
2023-01-05T00:52:17.142Z,11.93
2023-01-05T00:54:43.793Z,11.88
2023-01-05T00:57:14.803Z,11.96
2023-01-05T00:59:41.407Z,11.84
2023-01-05T01:02:08.097Z,12.00
2023-01-05T01:04:35.067Z,11.75
2023-01-05T01:07:04.772Z,11.75
2023-01-05T01:09:32.013Z,11.77
2023-01-05T01:11:58.554Z,11.66
2023-01-05T01:14:25.273Z,11.67
2023-01-05T01:16:51.920Z,11.57
2023-01-05T01:19:25.055Z,11.50
2023-01-05T01:21:52.374Z,11.53
2023-01-05T01:24:24.978Z,11.57
2023-01-05T01:26:52.000Z,11.59
2023-01-05T01:29:18.739Z,11.43
2023-01-05T01:31:48.378Z,11.68
2023-01-05T01:34:15.218Z,11.69
2023-01-05T01:36:42.398Z,11.61
2023-01-05T01:39:10.066Z,11.71
2023-01-05T01:41:38.911Z,11.82
2023-01-05T01:44:43.625Z,11.59
2023-01-05T01:47:24.130Z,11.57
2023-01-05T01:49:51.536Z,11.57
2023-01-05T01:52:20.606Z,11.70
2023-01-05T01:54:48.028Z,11.83
2023-01-05T01:57:15.576Z,11.92
2023-01-05T01:59:42.862Z,11.75
2023-01-05T02:02:12.200Z,11.67
2023-01-05T02:04:39.884Z,11.68
2023-01-05T02:07:09.534Z,11.64
2023-01-05T02:09:36.981Z,11.73
2023-01-05T02:12:24.396Z,11.71
2023-01-05T02:15:34.312Z,11.64
2023-01-05T02:18:13.819Z,11.64
2023-01-05T02:21:04.944Z,11.73
2023-01-05T02:23:56.669Z,11.75
2023-01-05T02:26:41.842Z,11.73
2023-01-05T02:29:23.785Z,11.70
2023-01-05T02:31:58.739Z,11.82
2023-01-05T02:34:35.855Z,11.72
2023-01-05T02:37:28.035Z,11.85
2023-01-05T02:40:24.398Z,11.71
2023-01-05T02:42:55.185Z,11.60
2023-01-05T02:45:23.858Z,11.58
2023-01-05T02:47:55.409Z,11.69
2023-01-05T02:50:34.641Z,11.66
2023-01-05T02:53:12.302Z,11.72
2023-01-05T02:55:44.832Z,11.78
2023-01-05T02:58:24.289Z,11.81
2023-01-05T03:00:55.736Z,11.95
2023-01-05T03:03:39.094Z,11.91
2023-01-05T03:06:14.063Z,11.91
2023-01-05T03:08:51.447Z,11.85
2023-01-05T03:11:39.310Z,11.40
2023-01-05T03:14:14.213Z,11.36
2023-01-05T03:16:41.223Z,11.46
2023-01-05T03:19:30.658Z,11.51
2023-01-05T03:22:18.281Z,11.52
2023-01-05T03:25:04.296Z,11.52
2023-01-05T03:27:54.890Z,11.12
2023-01-05T03:30:49.203Z,10.99
2023-01-05T03:33:50.001Z,11.10
2023-01-05T03:36:21.373Z,11.19
2023-01-05T03:38:51.269Z,11.29
2023-01-05T03:41:19.770Z,11.28
2023-01-05T03:43:48.453Z,11.30
2023-01-05T03:46:18.935Z,11.31
2023-01-05T03:48:45.985Z,11.31
2023-01-05T03:51:14.548Z,11.31
2023-01-05T03:53:41.168Z,11.30
2023-01-05T03:56:07.869Z,11.16
2023-01-05T03:58:35.086Z,11.15
2023-01-05T04:01:02.488Z,11.22
2023-01-05T04:03:32.231Z,11.21
2023-01-05T04:06:02.377Z,11.12
2023-01-05T04:08:30.813Z,11.15
2023-01-05T04:11:10.961Z,11.16
2023-01-05T04:13:37.652Z,11.23
2023-01-05T04:16:04.574Z,11.22
2023-01-05T04:18:31.379Z,11.23
2023-01-05T04:20:58.387Z,11.18
2023-01-05T04:23:25.171Z,11.15
2023-01-05T04:25:54.418Z,11.27
2023-01-05T04:28:23.004Z,11.34
2023-01-05T04:30:51.865Z,11.41
2023-01-05T04:33:20.386Z,11.61
2023-01-05T04:35:48.191Z,11.41
2023-01-05T04:38:14.814Z,11.09
2023-01-05T04:40:41.818Z,11.06
2023-01-05T04:43:10.302Z,10.93
2023-01-05T04:45:37.226Z,11.10
2023-01-05T04:48:06.479Z,11.15
2023-01-05T04:50:33.130Z,11.06
2023-01-05T04:53:00.302Z,11.00
2023-01-05T04:55:29.308Z,11.09
2023-01-05T04:57:56.141Z,11.29
2023-01-05T05:00:23.962Z,11.16
2023-01-05T05:02:51.296Z,11.19
2023-01-05T05:05:18.750Z,11.11
2023-01-05T05:07:50.293Z,11.10
2023-01-05T05:10:18.079Z,11.19
2023-01-05T05:12:46.577Z,11.21
2023-01-05T05:15:13.554Z,11.25
2023-01-05T05:17:44.971Z,11.20
2023-01-05T05:20:13.491Z,11.20
2023-01-05T05:22:40.176Z,11.37
2023-01-05T05:25:08.574Z,11.41
2023-01-05T05:27:39.430Z,11.32
2023-01-05T05:30:06.641Z,11.37
2023-01-05T05:32:33.326Z,11.23
2023-01-05T05:34:59.827Z,11.23
2023-01-05T05:37:26.485Z,11.19
2023-01-05T05:39:53.005Z,11.32
2023-01-05T05:42:19.607Z,11.45
2023-01-05T05:44:46.179Z,11.28
2023-01-05T05:47:12.717Z,11.23
2023-01-05T05:49:39.412Z,11.15
2023-01-05T05:52:06.048Z,11.01
2023-01-05T05:54:32.596Z,10.90
2023-01-05T05:56:59.137Z,11.02
2023-01-05T05:59:25.647Z,10.96
2023-01-05T06:01:52.603Z,10.80
2023-01-05T06:04:19.639Z,10.68
2023-01-05T06:06:46.286Z,10.93
2023-01-05T06:09:12.968Z,10.73
2023-01-05T06:11:39.831Z,10.80
2023-01-05T06:14:07.712Z,10.72
2023-01-05T06:16:34.723Z,10.62
2023-01-05T06:19:01.443Z,10.62
2023-01-05T06:21:28.005Z,10.63
2023-01-05T06:23:54.587Z,10.71
2023-01-05T06:26:21.173Z,10.75
2023-01-05T06:28:47.716Z,10.76
2023-01-05T06:31:14.330Z,10.78
2023-01-05T06:33:40.937Z,10.77
2023-01-05T06:36:07.911Z,10.71
2023-01-05T06:38:34.528Z,10.55
2023-01-05T06:41:01.096Z,10.56
2023-01-05T06:43:27.595Z,10.69
2023-01-05T06:45:54.273Z,10.74
2023-01-05T06:48:20.908Z,10.88
2023-01-05T06:50:47.589Z,10.82
2023-01-05T06:53:14.431Z,10.86
2023-01-05T06:55:40.995Z,10.84
2023-01-05T06:58:07.655Z,10.84
2023-01-05T07:00:34.449Z,10.92
2023-01-05T07:03:01.080Z,11.02
2023-01-05T07:05:27.639Z,10.85
2023-01-05T07:07:54.386Z,10.77
2023-01-05T07:10:20.982Z,10.81
2023-01-05T07:12:47.521Z,10.73
2023-01-05T07:15:14.110Z,10.85
2023-01-05T07:17:40.612Z,10.78
2023-01-05T07:20:07.953Z,10.92
2023-01-05T07:22:34.603Z,10.87
2023-01-05T07:25:01.290Z,10.91
2023-01-05T07:27:27.817Z,10.99
2023-01-05T07:29:54.513Z,10.94
2023-01-05T07:32:21.109Z,11.00
2023-01-05T07:34:55.467Z,10.98
2023-01-05T07:37:24.470Z,10.89
2023-01-05T07:39:51.037Z,10.91
2023-01-05T07:42:17.684Z,10.90
2023-01-05T07:44:46.491Z,10.89
2023-01-05T07:47:13.052Z,11.10
2023-01-05T07:49:39.649Z,11.07
2023-01-05T07:52:06.313Z,10.99
2023-01-05T07:54:32.964Z,10.86
2023-01-05T07:56:59.739Z,10.99
2023-01-05T07:59:26.394Z,10.95
2023-01-05T08:01:53.093Z,10.93
2023-01-05T08:04:20.036Z,10.85
2023-01-05T08:06:46.559Z,10.87
2023-01-05T08:09:31.888Z,11.14
2023-01-05T08:11:58.473Z,11.20
2023-01-05T08:14:24.986Z,11.14
2023-01-05T08:16:51.676Z,11.08
2023-01-05T08:19:19.574Z,11.10
2023-01-05T08:21:46.102Z,11.12
2023-01-05T08:24:12.782Z,11.23
2023-01-05T08:26:39.759Z,11.28
2023-01-05T08:29:06.853Z,11.23
2023-01-05T08:31:37.395Z,11.30
2023-01-05T08:34:05.063Z,11.19
2023-01-05T08:36:32.746Z,11.05
2023-01-05T08:39:01.365Z,11.28
2023-01-05T08:41:31.125Z,11.13
2023-01-05T08:43:59.684Z,11.20
2023-01-05T08:46:28.881Z,11.25
2023-01-05T08:48:57.874Z,11.25
2023-01-05T08:51:24.626Z,11.21
2023-01-05T08:53:51.633Z,11.27
2023-01-05T08:56:18.794Z,11.38
2023-01-05T08:58:45.698Z,11.50
2023-01-05T09:01:15.033Z,11.54
2023-01-05T09:03:41.717Z,11.36
2023-01-05T09:06:11.806Z,11.28
2023-01-05T09:08:40.125Z,11.27
2023-01-05T09:11:12.218Z,11.55
2023-01-05T09:13:40.115Z,11.48
2023-01-05T09:16:13.267Z,11.48
2023-01-05T09:18:41.765Z,11.28
2023-01-05T09:21:09.356Z,11.32
2023-01-05T09:23:37.083Z,11.33
2023-01-05T09:26:13.467Z,11.26
2023-01-05T09:28:40.171Z,11.27
2023-01-05T09:31:14.663Z,11.22
2023-01-05T09:33:42.110Z,11.15
2023-01-05T09:36:09.766Z,11.26
2023-01-05T09:38:38.843Z,11.40
2023-01-05T09:41:42.269Z,11.19
2023-01-05T09:44:26.290Z,11.49
2023-01-05T09:46:55.373Z,11.61
2023-01-05T09:49:24.630Z,11.58
2023-01-05T09:51:58.265Z,11.55
2023-01-05T09:54:27.581Z,11.54
2023-01-05T09:57:13.183Z,11.48
2023-01-05T09:59:46.308Z,11.41
2023-01-05T10:02:20.244Z,11.52
2023-01-05T10:04:48.029Z,11.67
2023-01-05T10:07:34.038Z,11.52
2023-01-05T10:10:02.897Z,11.81
2023-01-05T10:12:59.374Z,11.77
2023-01-05T10:15:27.641Z,11.74
2023-01-05T10:17:54.246Z,11.82
2023-01-05T10:20:29.822Z,11.75
2023-01-05T10:23:22.981Z,11.76
2023-01-05T10:26:03.678Z,11.79
2023-01-05T10:28:39.990Z,11.74
2023-01-05T10:31:48.704Z,11.80
2023-01-05T10:34:33.508Z,12.01
2023-01-05T10:37:28.641Z,12.14
2023-01-05T10:40:33.610Z,12.07
2023-01-05T10:43:06.053Z,12.11
2023-01-05T10:45:32.842Z,12.10
2023-01-05T10:47:59.883Z,12.23
2023-01-05T10:50:38.603Z,12.24
2023-01-05T10:53:16.267Z,12.24
2023-01-05T10:55:53.818Z,12.16
2023-01-05T10:58:28.988Z,12.26
2023-01-05T11:00:59.454Z,12.37
2023-01-05T11:04:04.237Z,12.32
2023-01-05T11:06:30.198Z,12.38
2023-01-05T11:09:15.228Z,12.10
2023-01-05T11:12:00.113Z,12.11
2023-01-05T11:14:29.228Z,12.09
2023-01-05T11:17:02.602Z,12.06
2023-01-05T11:19:37.010Z,12.08
2023-01-05T11:22:03.651Z,12.08
2023-01-05T11:24:35.015Z,12.25
2023-01-05T11:27:23.718Z,12.45
2023-01-05T11:30:17.922Z,12.38
2023-01-05T11:32:45.797Z,12.27
2023-01-05T11:35:43.944Z,12.26
2023-01-05T11:38:36.628Z,12.47
2023-01-05T11:41:03.457Z,12.37
2023-01-05T11:43:32.794Z,12.37
2023-01-05T11:46:03.375Z,12.25
2023-01-05T11:48:34.421Z,12.49
2023-01-05T11:51:02.598Z,12.24
2023-01-05T11:53:35.246Z,12.17
2023-01-05T11:56:15.121Z,12.18
2023-01-05T11:58:44.383Z,12.20
2023-01-05T12:01:17.059Z,12.19
2023-01-05T12:04:09.570Z,11.48
2023-01-05T12:06:45.295Z,11.29
2023-01-05T12:09:35.407Z,11.26
2023-01-05T12:12:41.510Z,11.22
2023-01-05T12:15:27.795Z,11.19
2023-01-05T12:18:01.653Z,11.43
2023-01-05T12:20:37.387Z,11.41
2023-01-05T12:23:32.307Z,11.48
2023-01-05T12:26:13.783Z,11.37
2023-01-05T12:29:34.536Z,11.56
2023-01-05T12:36:00.759Z,11.53
2023-01-05T12:38:48.504Z,11.46
2023-01-05T12:41:42.429Z,11.67
2023-01-05T12:44:39.773Z,11.60
2023-01-05T12:47:22.133Z,11.64
2023-01-05T12:49:59.179Z,11.73
2023-01-05T12:52:34.293Z,11.82
2023-01-05T12:55:18.143Z,11.83
2023-01-05T12:57:58.116Z,11.62
2023-01-05T13:00:28.890Z,11.61
2023-01-05T13:03:00.769Z,11.71
2023-01-05T13:05:36.437Z,11.87
2023-01-05T13:08:26.497Z,11.78
2023-01-05T13:10:59.522Z,11.64
2023-01-05T13:13:38.660Z,11.73
2023-01-05T13:16:08.604Z,11.64
2023-01-05T13:18:37.959Z,11.74
2023-01-05T13:21:12.812Z,11.95
2023-01-05T13:23:47.159Z,11.99
2023-01-05T13:26:22.085Z,12.05
2023-01-05T13:28:52.378Z,11.96
2023-01-05T13:31:41.422Z,12.13
2023-01-05T13:34:38.768Z,12.01
2023-01-05T13:37:43.737Z,11.89
2023-01-05T13:40:31.061Z,11.90
2023-01-05T13:43:35.360Z,11.95
2023-01-05T13:46:31.249Z,12.01
2023-01-05T13:49:15.236Z,12.18
2023-01-05T13:51:44.643Z,12.18
2023-01-05T13:54:22.605Z,12.05
2023-01-05T13:56:50.288Z,12.13
2023-01-05T13:59:44.467Z,12.19
2023-01-05T14:02:31.075Z,12.30
2023-01-05T14:04:58.821Z,12.25
2023-01-05T14:07:26.956Z,12.11
2023-01-05T14:09:58.227Z,11.84
2023-01-05T14:12:27.689Z,11.85
2023-01-05T14:15:12.780Z,11.90
2023-01-05T14:17:51.750Z,11.72
2023-01-05T14:20:46.651Z,12.16
2023-01-05T14:23:25.600Z,11.80
2023-01-05T14:25:53.254Z,12.25
2023-01-05T14:28:23.370Z,11.75
2023-01-05T14:30:51.559Z,11.76
2023-01-05T14:33:20.009Z,12.31
2023-01-05T14:35:47.066Z,11.83
2023-01-05T14:38:13.574Z,11.63
2023-01-05T14:40:44.506Z,11.68
2023-01-05T14:43:29.576Z,11.64
2023-01-05T14:45:57.830Z,11.61
2023-01-05T14:48:30.093Z,11.62
2023-01-05T14:51:30.926Z,11.44
2023-01-05T14:54:02.899Z,11.56
2023-01-05T14:56:32.301Z,11.67
2023-01-05T14:59:13.013Z,11.86
2023-01-05T15:01:51.257Z,11.85
2023-01-05T15:04:27.778Z,11.83
2023-01-05T15:07:06.742Z,11.77
2023-01-05T15:10:01.150Z,11.83
2023-01-05T15:12:42.638Z,11.91
2023-01-05T15:15:24.426Z,11.98
2023-01-05T15:18:20.457Z,11.90
2023-01-05T15:21:11.774Z,11.71
2023-01-05T15:23:56.908Z,11.85
2023-01-05T15:27:21.925Z,11.58
2023-01-05T15:30:03.497Z,11.54
2023-01-05T15:32:37.802Z,11.59
2023-01-05T15:35:25.770Z,11.41
2023-01-05T15:37:53.292Z,11.49
2023-01-05T15:40:29.429Z,11.55
2023-01-05T15:43:01.724Z,11.51
2023-01-05T15:45:35.677Z,11.62
2023-01-05T15:48:09.641Z,11.64
2023-01-05T15:50:45.300Z,11.64
2023-01-05T15:53:27.333Z,11.69
2023-01-05T15:55:54.430Z,11.68
2023-01-05T15:58:22.535Z,11.59
2023-01-05T16:01:15.544Z,11.60
2023-01-05T16:03:44.487Z,11.52
2023-01-05T16:06:20.956Z,11.52
2023-01-05T16:08:50.299Z,11.52
2023-01-05T16:11:37.585Z,11.35
2023-01-05T16:14:13.776Z,11.49
2023-01-05T16:16:53.724Z,11.62
2023-01-05T16:19:32.009Z,11.69
2023-01-05T16:22:24.993Z,11.81
2023-01-05T16:25:12.217Z,11.62
2023-01-05T16:27:41.252Z,11.61
2023-01-05T16:30:27.641Z,11.58
2023-01-05T16:33:12.517Z,11.55
2023-01-05T16:35:43.425Z,11.23
2023-01-05T16:38:10.282Z,11.45
2023-01-05T16:40:40.970Z,11.39
2023-01-05T16:43:25.882Z,11.25
2023-01-05T16:45:58.035Z,11.33
2023-01-05T16:48:38.815Z,11.25
2023-01-05T16:51:08.164Z,11.30
2023-01-05T16:53:40.849Z,11.29
2023-01-05T16:56:32.118Z,11.42
2023-01-05T16:59:00.273Z,11.50
2023-01-05T17:01:35.718Z,11.39
2023-01-05T17:04:12.230Z,11.45
2023-01-05T17:06:40.755Z,11.48
2023-01-05T17:09:32.143Z,11.64
2023-01-05T17:11:59.102Z,11.62
2023-01-05T17:14:28.026Z,11.66
2023-01-05T17:16:55.184Z,11.70
2023-01-05T17:19:21.932Z,11.68
2023-01-05T17:21:57.729Z,11.58
2023-01-05T17:24:26.942Z,11.61
2023-01-05T17:26:53.944Z,11.65
2023-01-05T17:29:29.493Z,11.63
2023-01-05T17:31:56.692Z,11.65
2023-01-05T17:34:24.189Z,11.50
2023-01-05T17:36:57.124Z,11.51
2023-01-05T17:39:24.113Z,11.36
2023-01-05T17:41:50.718Z,11.38
2023-01-05T17:44:17.903Z,11.17
2023-01-05T17:46:46.587Z,11.28
2023-01-05T17:49:16.407Z,11.28
2023-01-05T17:51:43.139Z,11.40
2023-01-05T17:54:10.427Z,11.51
2023-01-05T17:56:37.095Z,11.50
2023-01-05T17:59:04.805Z,11.34
2023-01-05T18:01:33.490Z,11.52
2023-01-05T18:04:00.304Z,11.69
2023-01-05T18:06:27.209Z,11.49
2023-01-05T18:08:54.087Z,11.59
2023-01-05T18:11:20.760Z,11.54
2023-01-05T18:13:47.368Z,11.35
2023-01-05T18:16:14.279Z,10.94
2023-01-05T18:18:41.105Z,11.00
2023-01-05T18:21:07.961Z,11.05
2023-01-05T18:23:34.855Z,11.03
2023-01-05T18:26:07.082Z,10.98
2023-01-05T18:28:33.897Z,11.06
2023-01-05T18:31:01.097Z,11.04
2023-01-05T18:33:28.168Z,11.04
2023-01-05T18:38:26.683Z,11.15
2023-01-05T18:40:53.252Z,11.12
2023-01-05T18:43:19.854Z,11.16
2023-01-05T18:45:53.481Z,11.34
2023-01-05T18:48:21.146Z,11.40
2023-01-05T18:50:51.050Z,11.28
2023-01-05T18:53:19.203Z,11.30
2023-01-05T18:55:46.165Z,11.30
2023-01-05T18:58:13.076Z,11.26
2023-01-05T19:00:43.955Z,11.27
2023-01-05T19:03:11.309Z,11.35
2023-01-05T19:05:40.785Z,11.29
2023-01-05T19:08:09.220Z,11.34
2023-01-05T19:10:36.060Z,11.52
2023-01-05T19:13:03.025Z,11.39
2023-01-05T19:15:31.521Z,11.46
2023-01-05T19:17:58.076Z,11.51
2023-01-05T19:20:24.608Z,11.54
2023-01-05T19:22:51.661Z,11.44
2023-01-05T19:25:18.941Z,11.48
2023-01-05T19:27:46.325Z,11.79
2023-01-05T19:30:14.853Z,11.59
2023-01-05T19:32:41.489Z,12.01
2023-01-05T19:35:08.176Z,11.43
2023-01-05T19:37:35.442Z,12.00
2023-01-05T19:40:02.729Z,11.35
2023-01-05T19:42:31.752Z,11.50
2023-01-05T19:44:58.397Z,11.53
2023-01-05T19:47:24.949Z,11.61
2023-01-05T19:49:53.016Z,11.73
2023-01-05T19:52:20.013Z,11.64
2023-01-05T19:54:47.440Z,11.69
2023-01-05T19:57:14.009Z,11.53
2023-01-05T19:59:40.556Z,11.61
2023-01-05T20:02:07.612Z,11.61
2023-01-05T20:04:34.428Z,11.77
2023-01-05T20:07:04.052Z,11.79
2023-01-05T20:09:31.458Z,11.80
2023-01-05T20:12:09.324Z,11.88
2023-01-05T20:14:41.220Z,11.70
2023-01-05T20:17:09.952Z,11.67
2023-01-05T20:19:37.960Z,11.74
2023-01-05T20:22:07.674Z,11.58
2023-01-05T20:24:36.649Z,11.72
2023-01-05T20:27:07.549Z,11.78
2023-01-05T20:29:34.905Z,11.59
2023-01-05T20:32:22.904Z,11.56
2023-01-05T20:34:52.222Z,11.52
2023-01-05T20:37:19.457Z,11.70
2023-01-05T20:39:46.155Z,11.84
2023-01-05T20:42:13.905Z,11.63
2023-01-05T20:44:43.683Z,11.60
2023-01-05T20:47:10.302Z,11.67
2023-01-05T20:49:38.692Z,11.68
2023-01-05T20:52:06.219Z,11.82
2023-01-05T20:54:33.268Z,11.71
2023-01-05T20:57:00.152Z,11.73
2023-01-05T20:59:32.191Z,11.84
2023-01-05T21:01:59.695Z,11.87
2023-01-05T21:04:27.691Z,11.88
2023-01-05T21:06:54.889Z,11.91
2023-01-05T21:09:22.523Z,11.85
2023-01-05T21:11:49.428Z,11.88
2023-01-05T21:14:16.833Z,11.88
2023-01-05T21:16:46.717Z,12.07
2023-01-05T21:19:17.489Z,11.87
2023-01-05T21:21:46.160Z,11.51
2023-01-05T21:24:13.991Z,11.41
2023-01-05T21:26:40.881Z,11.43
2023-01-05T21:29:10.178Z,11.40
2023-01-05T21:31:37.920Z,11.47
2023-01-05T21:34:05.334Z,11.35
2023-01-05T21:36:33.614Z,11.28
2023-01-05T21:39:04.302Z,11.18
2023-01-05T21:41:54.097Z,11.14
2023-01-05T21:44:21.611Z,11.02
2023-01-05T21:46:49.233Z,10.98
2023-01-05T21:49:16.795Z,11.24
2023-01-05T21:52:02.104Z,11.45
2023-01-05T21:54:47.431Z,11.53
2023-01-05T21:57:14.214Z,11.97
2023-01-05T21:59:41.506Z,11.78
2023-01-05T22:02:08.158Z,11.57
2023-01-05T22:04:34.919Z,10.94
2023-01-05T22:07:01.963Z,10.88
2023-01-05T22:09:28.557Z,10.90
2023-01-05T22:11:55.116Z,11.02
2023-01-05T22:14:21.614Z,10.86
2023-01-05T22:16:48.265Z,10.82
2023-01-05T22:19:14.901Z,10.85
2023-01-05T22:21:41.493Z,10.77
2023-01-05T22:24:09.409Z,10.94
2023-01-05T22:26:36.036Z,10.84
2023-01-05T22:29:02.885Z,10.92
2023-01-05T22:31:31.382Z,10.72
2023-01-05T22:34:00.001Z,10.71
2023-01-05T22:36:29.073Z,10.78
2023-01-05T22:38:56.330Z,11.04
2023-01-05T22:41:27.906Z,10.96
2023-01-05T22:43:55.612Z,10.83
2023-01-05T22:46:25.412Z,10.94
2023-01-05T22:48:54.052Z,11.03
2023-01-05T22:51:27.847Z,10.98
2023-01-05T22:53:54.745Z,10.93
2023-01-05T22:56:23.599Z,10.80
2023-01-05T22:58:50.264Z,10.85
2023-01-05T23:01:22.568Z,10.87
2023-01-05T23:03:50.310Z,10.77
2023-01-05T23:06:17.637Z,10.92
2023-01-05T23:08:45.383Z,11.15
2023-01-05T23:11:34.344Z,10.98
2023-01-05T23:14:03.183Z,11.03
2023-01-05T23:16:30.127Z,11.13
2023-01-05T23:18:57.044Z,11.30
2023-01-05T23:21:25.720Z,11.24
2023-01-05T23:23:54.159Z,11.39
2023-01-05T23:26:22.008Z,11.39
2023-01-05T23:28:48.697Z,11.38
2023-01-05T23:31:16.333Z,11.51
2023-01-05T23:33:44.030Z,11.57
2023-01-05T23:36:12.497Z,11.51
2023-01-05T23:38:39.778Z,11.68
2023-01-05T23:41:08.333Z,11.67
2023-01-05T23:43:38.372Z,11.57
2023-01-05T23:46:07.341Z,11.64
2023-01-05T23:48:35.966Z,11.56
2023-01-05T23:51:04.311Z,11.50
2023-01-05T23:53:31.193Z,11.69
2023-01-05T23:56:08.521Z,11.27
2023-01-05T23:58:35.218Z,11.44
